createdAt,value
2023-04-23T00:02:16.833Z,45.38
2023-04-23T00:04:52.928Z,49.03
2023-04-23T00:07:21.674Z,46.97
2023-04-23T00:09:50.215Z,48.75
2023-04-23T00:12:17.597Z,46.15
2023-04-23T00:14:44.495Z,50.90
2023-04-23T00:17:11.549Z,46.58
2023-04-23T00:19:38.292Z,43.15
2023-04-23T00:22:06.169Z,50.42
2023-04-23T00:24:36.132Z,46.38
2023-04-23T00:27:03.359Z,44.83
2023-04-23T00:29:30.232Z,43.00
2023-04-23T00:31:57.595Z,44.13
2023-04-23T00:34:24.459Z,47.08
2023-04-23T00:36:51.524Z,48.60
2023-04-23T00:39:18.273Z,46.97
2023-04-23T00:41:45.431Z,44.78
2023-04-23T00:44:13.213Z,45.30
2023-04-23T00:46:40.413Z,45.25
2023-04-23T00:49:07.172Z,47.72
2023-04-23T00:51:34.400Z,45.00
2023-04-23T00:54:01.145Z,44.15
2023-04-23T00:56:28.416Z,43.75
2023-04-23T00:58:55.301Z,44.13
2023-04-23T01:01:22.422Z,47.08
2023-04-23T01:03:49.548Z,42.17
2023-04-23T01:06:16.906Z,44.80
2023-04-23T01:08:43.776Z,47.17
2023-04-23T01:11:11.390Z,42.35
2023-04-23T01:13:38.107Z,42.92
2023-04-23T01:16:05.454Z,44.53
2023-04-23T01:18:32.490Z,44.25
2023-04-23T01:20:59.663Z,44.70
2023-04-23T01:23:27.258Z,41.85
2023-04-23T01:25:54.682Z,42.88
2023-04-23T01:28:21.599Z,44.28
2023-04-23T01:30:48.661Z,45.47
2023-04-23T01:33:15.520Z,44.53
2023-04-23T01:35:42.537Z,42.75
2023-04-23T01:38:10.550Z,43.78
2023-04-23T01:40:38.026Z,44.72
2023-04-23T01:43:06.333Z,43.00
2023-04-23T01:45:33.430Z,45.35
2023-04-23T01:48:00.791Z,42.72
2023-04-23T01:50:29.927Z,42.63
2023-04-23T01:52:56.805Z,39.33
2023-04-23T01:55:23.976Z,42.10
2023-04-23T01:57:51.655Z,42.85
2023-04-23T02:00:18.967Z,45.95
2023-04-23T02:02:46.097Z,46.38
2023-04-23T02:05:18.674Z,40.08
2023-04-23T02:07:46.465Z,38.90
2023-04-23T02:10:13.597Z,37.75
2023-04-23T02:12:40.460Z,38.95
2023-04-23T02:15:08.035Z,39.45
2023-04-23T02:17:35.465Z,36.05
2023-04-23T02:20:02.860Z,39.33
2023-04-23T02:22:29.844Z,36.17
2023-04-23T02:24:56.936Z,36.10
2023-04-23T02:27:23.859Z,38.97
2023-04-23T02:29:51.851Z,35.60
2023-04-23T02:32:18.634Z,38.22
2023-04-23T02:34:46.363Z,35.15
2023-04-23T02:37:13.103Z,40.08
2023-04-23T02:39:40.227Z,37.03
2023-04-23T02:42:07.266Z,34.10
2023-04-23T02:44:34.385Z,34.40
2023-04-23T02:47:01.339Z,34.88
2023-04-23T02:49:28.473Z,34.90
2023-04-23T02:51:55.314Z,36.63
2023-04-23T02:54:22.350Z,33.10
2023-04-23T02:56:49.153Z,32.15
2023-04-23T02:59:16.267Z,31.73
2023-04-23T03:01:43.101Z,31.00
2023-04-23T03:04:10.412Z,30.55
2023-04-23T03:06:37.451Z,34.53
2023-04-23T03:09:05.002Z,32.10
2023-04-23T03:11:31.815Z,28.55
2023-04-23T03:13:58.878Z,29.33
2023-04-23T03:16:28.213Z,31.30
2023-04-23T03:18:55.704Z,28.27
2023-04-23T03:21:22.648Z,26.88
2023-04-23T03:23:49.769Z,30.27
2023-04-23T03:26:16.536Z,31.00
2023-04-23T03:28:43.592Z,30.08
2023-04-23T03:31:10.396Z,26.40
2023-04-23T03:33:37.514Z,26.30
2023-04-23T03:36:04.661Z,28.88
2023-04-23T03:38:31.804Z,28.85
2023-04-23T03:40:58.569Z,30.05
2023-04-23T03:43:25.725Z,29.83
2023-04-23T03:45:52.481Z,28.38
2023-04-23T03:48:20.826Z,29.67
2023-04-23T03:50:47.667Z,28.42
2023-04-23T03:53:14.727Z,24.38
2023-04-23T03:55:41.526Z,24.70
2023-04-23T03:58:09.709Z,27.08
2023-04-23T04:00:36.495Z,26.67
2023-04-23T04:03:04.470Z,27.92
2023-04-23T04:05:31.575Z,25.10
2023-04-23T04:07:58.686Z,27.33
2023-04-23T04:10:25.419Z,26.77
2023-04-23T04:12:52.514Z,25.92
2023-04-23T04:15:20.776Z,25.05
2023-04-23T04:17:47.906Z,28.17
2023-04-23T04:20:14.721Z,24.70
2023-04-23T04:22:41.883Z,24.63
2023-04-23T04:25:08.879Z,22.75
2023-04-23T04:27:36.021Z,25.02
2023-04-23T04:30:03.104Z,24.85
2023-04-23T04:32:30.173Z,22.48
2023-04-23T04:34:57.209Z,23.88
2023-04-23T04:37:24.801Z,25.65
2023-04-23T04:39:51.537Z,21.80
2023-04-23T04:42:19.178Z,24.48
2023-04-23T04:44:46.116Z,23.13
2023-04-23T04:47:13.605Z,22.88
2023-04-23T04:49:40.454Z,22.42
2023-04-23T04:52:07.581Z,24.35
2023-04-23T04:54:34.317Z,23.23
2023-04-23T04:57:02.410Z,22.58
2023-04-23T04:59:29.370Z,19.92
2023-04-23T05:01:56.773Z,24.48
2023-04-23T05:04:23.718Z,21.95
2023-04-23T05:06:50.934Z,21.40
2023-04-23T05:09:17.705Z,19.60
2023-04-23T05:11:44.796Z,20.70
2023-04-23T05:14:11.726Z,21.60
2023-04-23T05:16:38.785Z,18.30
2023-04-23T05:19:06.451Z,17.98
2023-04-23T05:21:33.541Z,19.73
2023-04-23T05:24:00.389Z,18.75
2023-04-23T05:26:27.536Z,18.88
2023-04-23T05:28:54.268Z,16.95
2023-04-23T05:31:21.662Z,17.10
2023-04-23T05:33:50.570Z,17.67
2023-04-23T05:36:18.471Z,16.27
2023-04-23T05:38:45.293Z,17.80
2023-04-23T05:41:12.356Z,16.60
2023-04-23T05:43:39.128Z,14.52
2023-04-23T05:46:07.709Z,16.90
2023-04-23T05:48:34.815Z,15.68
2023-04-23T05:51:02.034Z,16.63
2023-04-23T05:53:28.941Z,18.48
2023-04-23T05:55:56.106Z,13.57
2023-04-23T05:58:23.583Z,17.20
2023-04-23T06:00:50.654Z,15.75
2023-04-23T06:03:17.643Z,14.85
2023-04-23T06:05:45.302Z,14.98
2023-04-23T06:08:12.118Z,15.07
2023-04-23T06:10:39.179Z,12.40
2023-04-23T06:13:06.091Z,14.80
2023-04-23T06:15:33.159Z,11.93
2023-04-23T06:18:00.057Z,12.90
2023-04-23T06:20:27.302Z,14.77
2023-04-23T06:22:54.107Z,12.63
2023-04-23T06:25:21.236Z,14.30
2023-04-23T06:27:48.010Z,11.43
2023-04-23T06:30:15.160Z,11.70
2023-04-23T06:32:41.922Z,11.88
2023-04-23T06:35:09.576Z,12.15
2023-04-23T06:37:36.434Z,12.38
2023-04-23T06:40:03.779Z,10.27
2023-04-23T06:42:30.840Z,10.75
2023-04-23T06:44:59.586Z,13.07
2023-04-23T06:47:26.466Z,9.93
2023-04-23T06:49:53.592Z,10.40
2023-04-23T06:52:20.383Z,10.07
2023-04-23T06:54:47.523Z,13.27
2023-04-23T06:57:14.291Z,14.82
2023-04-23T06:59:41.337Z,9.82
2023-04-23T07:02:08.166Z,14.10
2023-04-23T07:04:35.704Z,8.85
2023-04-23T07:07:02.713Z,10.75
2023-04-23T07:09:29.956Z,10.50
2023-04-23T07:11:56.779Z,8.68
2023-04-23T07:14:24.880Z,9.75
2023-04-23T07:16:52.198Z,8.77
2023-04-23T07:19:19.339Z,9.18
2023-04-23T07:21:47.295Z,9.43
2023-04-23T07:24:14.441Z,9.00
2023-04-23T07:26:41.343Z,8.48
2023-04-23T07:29:10.572Z,7.45
2023-04-23T07:31:37.628Z,7.78
2023-04-23T07:34:04.992Z,7.95
2023-04-23T07:36:32.055Z,7.10
2023-04-23T07:38:59.201Z,7.45
2023-04-23T07:41:25.992Z,8.25
2023-04-23T07:43:53.001Z,10.45
2023-04-23T07:46:20.243Z,9.95
2023-04-23T07:48:47.436Z,6.38
2023-04-23T07:51:14.223Z,5.22
2023-04-23T07:53:41.494Z,6.72
2023-04-23T07:56:08.310Z,6.28
2023-04-23T07:58:35.604Z,7.97
2023-04-23T08:01:02.646Z,5.78
2023-04-23T08:03:29.989Z,6.65
2023-04-23T08:05:57.556Z,7.78
2023-04-23T08:08:24.677Z,5.75
2023-04-23T08:10:51.451Z,8.20
2023-04-23T08:13:19.324Z,5.68
2023-04-23T08:15:46.099Z,7.65
2023-04-23T08:18:13.286Z,5.55
2023-04-23T08:20:40.053Z,6.25
2023-04-23T08:23:07.207Z,6.60
2023-04-23T08:25:34.682Z,4.85
2023-04-23T08:28:02.419Z,5.70
2023-04-23T08:30:29.250Z,5.00
2023-04-23T08:32:56.684Z,4.93
2023-04-23T08:35:23.840Z,7.30
2023-04-23T08:37:50.906Z,3.58
2023-04-23T08:40:17.683Z,6.72
2023-04-23T08:42:52.245Z,7.93
2023-04-23T08:45:19.083Z,5.75
2023-04-23T08:47:46.238Z,5.15
2023-04-23T08:50:18.349Z,5.18
2023-04-23T08:52:48.146Z,4.55
2023-04-23T08:55:15.956Z,8.00
2023-04-23T08:57:43.071Z,5.45
2023-04-23T09:00:11.032Z,4.78
2023-04-23T09:02:40.598Z,6.95
2023-04-23T09:05:08.528Z,3.92
2023-04-23T09:07:35.954Z,5.43
2023-04-23T09:10:04.041Z,4.95
2023-04-23T09:12:31.218Z,4.80
2023-04-23T09:14:58.413Z,6.40
2023-04-23T09:17:28.090Z,4.25
2023-04-23T09:19:55.295Z,3.83
2023-04-23T09:22:47.441Z,4.45
2023-04-23T09:25:17.524Z,5.57
2023-04-23T09:27:45.884Z,3.70
2023-04-23T09:30:13.046Z,5.88
2023-04-23T09:32:42.225Z,6.88
2023-04-23T09:35:10.611Z,4.90
2023-04-23T09:37:38.857Z,5.25
2023-04-23T09:40:09.542Z,4.72
2023-04-23T09:42:37.076Z,4.30
2023-04-23T09:45:06.265Z,4.07
2023-04-23T09:47:41.019Z,3.45
2023-04-23T09:50:10.483Z,6.80
2023-04-23T09:52:41.207Z,5.82
2023-04-23T09:55:08.616Z,3.35
2023-04-23T09:57:42.519Z,4.25
2023-04-23T10:00:15.291Z,3.92
2023-04-23T10:02:49.839Z,3.83
2023-04-23T10:05:24.844Z,3.65
2023-04-23T10:07:59.743Z,8.52
2023-04-23T10:10:26.723Z,3.88
2023-04-23T10:12:55.899Z,3.80
2023-04-23T10:15:26.910Z,3.63
2023-04-23T10:17:54.701Z,6.55
2023-04-23T10:20:24.578Z,3.20
2023-04-23T10:22:52.594Z,3.30
2023-04-23T10:25:19.431Z,4.40
2023-04-23T10:27:53.756Z,3.97
2023-04-23T10:30:21.034Z,3.58
2023-04-23T10:32:48.829Z,5.20
2023-04-23T10:35:15.694Z,3.58
2023-04-23T10:37:42.859Z,2.97
2023-04-23T10:40:12.886Z,5.03
2023-04-23T10:42:40.728Z,3.95
2023-04-23T10:45:23.164Z,3.42
2023-04-23T10:47:53.572Z,2.80
2023-04-23T10:50:30.796Z,3.78
2023-04-23T10:52:58.715Z,2.88
2023-04-23T10:55:27.453Z,3.17
2023-04-23T10:58:05.873Z,2.88
2023-04-23T11:00:41.955Z,6.15
2023-04-23T11:03:44.569Z,4.15
2023-04-23T11:06:15.621Z,3.13
2023-04-23T11:08:53.825Z,3.17
2023-04-23T11:11:25.774Z,3.00
2023-04-23T11:13:55.804Z,2.40
2023-04-23T11:16:23.600Z,3.53
2023-04-23T11:19:03.081Z,2.65
2023-04-23T11:21:54.765Z,2.75
2023-04-23T11:24:27.200Z,2.53
2023-04-23T11:26:54.582Z,3.28
2023-04-23T11:29:23.801Z,4.05
2023-04-23T11:32:01.528Z,3.10
2023-04-23T11:34:30.917Z,3.95
2023-04-23T11:36:59.177Z,2.17
2023-04-23T11:39:27.031Z,2.83
2023-04-23T11:41:54.877Z,3.72
2023-04-23T11:44:22.135Z,3.65
2023-04-23T11:46:49.861Z,3.35
2023-04-23T11:49:17.146Z,3.10
2023-04-23T11:51:44.612Z,2.67
2023-04-23T11:54:13.665Z,2.75
2023-04-23T11:56:40.866Z,2.58
2023-04-23T11:59:08.148Z,1.92
2023-04-23T12:01:46.816Z,2.60
2023-04-23T12:04:20.088Z,2.97
2023-04-23T12:06:47.923Z,2.42
2023-04-23T12:09:16.038Z,3.10
2023-04-23T12:11:43.495Z,5.63
2023-04-23T12:14:11.447Z,2.70
2023-04-23T12:16:41.466Z,2.17
2023-04-23T12:19:15.346Z,2.03
2023-04-23T12:21:49.601Z,3.13
2023-04-23T12:24:16.743Z,2.42
2023-04-23T12:26:44.511Z,2.92
2023-04-23T12:29:13.371Z,2.13
2023-04-23T12:31:40.365Z,2.53
2023-04-23T12:34:08.793Z,3.17
2023-04-23T12:36:36.710Z,2.60
2023-04-23T12:39:32.097Z,2.05
2023-04-23T12:42:05.537Z,2.13
2023-04-23T12:44:35.530Z,4.05
2023-04-23T12:47:07.684Z,2.60
2023-04-23T12:49:35.906Z,2.90
2023-04-23T12:52:03.742Z,2.45
2023-04-23T12:54:33.126Z,1.95
2023-04-23T12:57:02.026Z,1.80
2023-04-23T12:59:29.405Z,3.67
2023-04-23T13:01:56.256Z,2.03
2023-04-23T13:04:23.326Z,1.90
2023-04-23T13:06:50.837Z,2.47
2023-04-23T13:09:17.978Z,2.28
2023-04-23T13:11:46.194Z,2.55
2023-04-23T13:14:13.264Z,3.03
2023-04-23T13:16:40.113Z,3.22
2023-04-23T13:19:07.346Z,4.60
2023-04-23T13:21:34.102Z,2.25
2023-04-23T13:24:01.186Z,5.25
2023-04-23T13:26:31.968Z,3.20
2023-04-23T13:28:59.774Z,2.35
2023-04-23T13:31:26.917Z,3.55
2023-04-23T13:33:54.044Z,2.33
2023-04-23T13:36:20.798Z,3.10
2023-04-23T13:38:47.984Z,3.72
2023-04-23T13:41:14.756Z,2.55
2023-04-23T13:43:41.851Z,3.80
2023-04-23T13:46:08.787Z,2.30
2023-04-23T13:48:35.883Z,3.20
2023-04-23T13:51:02.760Z,3.08
2023-04-23T13:53:29.853Z,2.50
2023-04-23T13:55:56.775Z,2.60
2023-04-23T13:58:24.063Z,2.40
2023-04-23T14:00:50.963Z,2.00
2023-04-23T14:03:18.184Z,4.25
2023-04-23T14:05:45.091Z,2.20
2023-04-23T14:08:13.088Z,2.08
2023-04-23T14:10:43.020Z,2.17
2023-04-23T14:13:10.820Z,3.35
2023-04-23T14:15:37.710Z,2.17
2023-04-23T14:18:05.778Z,2.80
2023-04-23T14:20:32.604Z,2.28
2023-04-23T14:23:22.935Z,2.78
2023-04-23T14:25:57.238Z,3.05
2023-04-23T14:28:27.424Z,3.00
2023-04-23T14:30:57.504Z,2.10
2023-04-23T14:33:24.633Z,2.65
2023-04-23T14:35:51.507Z,1.90
2023-04-23T14:38:18.708Z,2.53
2023-04-23T14:40:45.479Z,2.30
2023-04-23T14:43:15.773Z,3.40
2023-04-23T14:45:43.099Z,2.75
2023-04-23T14:48:10.513Z,3.75
2023-04-23T14:50:37.340Z,4.38
2023-04-23T14:53:07.151Z,3.53
2023-04-23T14:55:34.297Z,4.43
2023-04-23T14:58:01.629Z,1.88
2023-04-23T15:00:28.491Z,5.25
2023-04-23T15:02:56.438Z,4.40
2023-04-23T15:05:23.483Z,5.25
2023-04-23T15:07:51.884Z,2.42
2023-04-23T15:10:20.338Z,2.42
2023-04-23T15:12:53.445Z,2.25
2023-04-23T15:15:36.820Z,2.40
2023-04-23T15:18:13.783Z,2.25
2023-04-23T15:20:40.954Z,4.55
2023-04-23T15:23:08.142Z,3.33
2023-04-23T15:25:34.924Z,2.05
2023-04-23T15:28:02.054Z,2.58
2023-04-23T15:30:29.050Z,3.25
2023-04-23T15:32:56.301Z,2.40
2023-04-23T15:35:24.004Z,2.15
2023-04-23T15:37:51.300Z,2.42
2023-04-23T15:40:18.256Z,3.47
2023-04-23T15:42:45.470Z,2.00
2023-04-23T15:45:12.336Z,2.88
2023-04-23T15:47:39.500Z,2.63
2023-04-23T15:50:06.757Z,3.92
2023-04-23T15:52:33.835Z,3.63
2023-04-23T15:55:00.956Z,3.10
2023-04-23T15:57:28.158Z,2.47
2023-04-23T15:59:55.774Z,2.92
2023-04-23T16:02:22.971Z,2.35
2023-04-23T16:04:52.692Z,3.13
2023-04-23T16:07:19.846Z,2.53
2023-04-23T16:09:46.653Z,3.05
2023-04-23T16:12:13.908Z,2.92
2023-04-23T16:14:42.638Z,2.53
2023-04-23T16:17:09.818Z,2.47
2023-04-23T16:19:36.686Z,4.32
2023-04-23T16:22:03.874Z,3.20
2023-04-23T16:24:31.092Z,2.83
2023-04-23T16:26:58.182Z,3.10
2023-04-23T16:29:25.059Z,3.50
2023-04-23T16:31:52.212Z,3.53
2023-04-23T16:34:19.076Z,4.57
2023-04-23T16:36:46.819Z,3.60
2023-04-23T16:39:14.654Z,4.03
2023-04-23T16:41:41.725Z,3.53
2023-04-23T16:44:08.584Z,3.72
2023-04-23T16:46:35.728Z,4.15
2023-04-23T16:49:02.739Z,4.30
2023-04-23T16:51:29.969Z,3.63
2023-04-23T16:53:56.951Z,4.35
2023-04-23T16:56:24.186Z,4.38
2023-04-23T16:58:51.042Z,3.65
2023-04-23T17:01:18.254Z,3.00
2023-04-23T17:03:45.844Z,3.42
2023-04-23T17:06:27.088Z,2.97
2023-04-23T17:08:54.508Z,3.60
2023-04-23T17:11:23.118Z,2.80
2023-04-23T17:13:51.044Z,3.30
2023-04-23T17:16:18.416Z,3.08
2023-04-23T17:18:45.600Z,3.35
2023-04-23T17:21:12.830Z,6.75
2023-04-23T17:23:39.676Z,3.10
2023-04-23T17:26:07.066Z,3.30
2023-04-23T17:28:33.837Z,3.25
2023-04-23T17:31:02.658Z,3.50
2023-04-23T17:33:29.884Z,2.90
2023-04-23T17:35:57.200Z,3.15
2023-04-23T17:38:24.781Z,3.20
2023-04-23T17:40:52.458Z,3.00
2023-04-23T17:43:19.366Z,3.42
2023-04-23T17:45:47.580Z,3.15
2023-04-23T17:48:14.767Z,3.55
2023-04-23T17:50:42.218Z,4.22
2023-04-23T17:53:09.030Z,3.47
2023-04-23T17:55:36.220Z,4.18
2023-04-23T17:58:05.780Z,4.60
2023-04-23T18:00:36.654Z,4.25
2023-04-23T18:03:04.009Z,4.70
2023-04-23T18:05:31.424Z,4.10
2023-04-23T18:07:58.337Z,5.60
2023-04-23T18:10:25.550Z,4.00
2023-04-23T18:12:52.510Z,3.97
2023-04-23T18:15:19.728Z,4.65
2023-04-23T18:17:47.535Z,4.43
2023-04-23T18:20:16.203Z,4.55
2023-04-23T18:22:44.335Z,5.50
2023-04-23T18:25:12.675Z,5.20
2023-04-23T18:27:39.635Z,5.68
2023-04-23T18:30:08.318Z,5.55
2023-04-23T18:32:40.083Z,5.97
2023-04-23T18:35:09.102Z,6.35
2023-04-23T18:37:56.008Z,6.97
2023-04-23T18:40:23.291Z,6.63
2023-04-23T18:42:50.423Z,6.82
2023-04-23T18:45:17.535Z,8.02
2023-04-23T18:47:50.024Z,7.25
2023-04-23T18:50:42.162Z,8.05
2023-04-23T18:53:08.949Z,10.02
2023-04-23T18:55:36.846Z,7.15
2023-04-23T18:58:03.671Z,7.63
2023-04-23T19:00:30.823Z,8.55
2023-04-23T19:02:57.988Z,9.73
2023-04-23T19:05:25.280Z,8.30
2023-04-23T19:07:52.331Z,9.02
2023-04-23T19:10:19.476Z,8.52
2023-04-23T19:12:46.352Z,10.00
2023-04-23T19:15:15.034Z,8.23
2023-04-23T19:17:41.962Z,9.02
2023-04-23T19:20:11.226Z,10.13
2023-04-23T19:22:40.572Z,10.20
2023-04-23T19:25:09.318Z,7.97
2023-04-23T19:27:38.908Z,9.63
2023-04-23T19:30:06.981Z,10.68
2023-04-23T19:32:33.874Z,8.80
2023-04-23T19:35:01.120Z,8.77
2023-04-23T19:37:28.280Z,8.68
2023-04-23T19:39:55.380Z,8.30
2023-04-23T19:42:22.218Z,10.25
2023-04-23T19:44:49.754Z,10.18
2023-04-23T19:47:17.185Z,10.15
2023-04-23T19:49:45.009Z,10.35
2023-04-23T19:52:17.242Z,9.00
2023-04-23T19:54:49.067Z,13.40
2023-04-23T19:57:18.406Z,12.52
2023-04-23T19:59:46.065Z,10.27
2023-04-23T20:02:12.997Z,11.70
2023-04-23T20:04:41.365Z,11.02
2023-04-23T20:07:08.504Z,10.52
2023-04-23T20:09:35.613Z,11.57
2023-04-23T20:12:02.870Z,11.30
2023-04-23T20:14:30.024Z,11.57
2023-04-23T20:16:57.368Z,9.85
2023-04-23T20:19:26.187Z,12.55
2023-04-23T20:21:53.499Z,12.20
2023-04-23T20:24:21.498Z,14.07
2023-04-23T20:26:48.620Z,12.02
2023-04-23T20:29:15.355Z,11.57
2023-04-23T20:31:42.538Z,13.77
2023-04-23T20:34:09.522Z,12.43
2023-04-23T20:36:38.736Z,12.65
2023-04-23T20:39:05.593Z,13.73
2023-04-23T20:41:34.531Z,12.43
2023-04-23T20:44:02.064Z,14.20
2023-04-23T20:46:32.600Z,12.13
2023-04-23T20:49:00.894Z,13.57
2023-04-23T20:51:33.211Z,13.32
2023-04-23T20:54:00.113Z,12.35
2023-04-23T20:56:27.961Z,14.32
2023-04-23T20:58:54.785Z,14.25
2023-04-23T21:01:21.910Z,16.13
2023-04-23T21:03:49.392Z,12.32
2023-04-23T21:06:16.557Z,12.75
2023-04-23T21:08:43.312Z,15.05
2023-04-23T21:11:11.345Z,14.18
2023-04-23T21:13:38.208Z,13.07
2023-04-23T21:16:05.495Z,14.43
2023-04-23T21:18:32.363Z,12.98
2023-04-23T21:20:59.819Z,15.45
2023-04-23T21:23:26.656Z,14.35
2023-04-23T21:25:53.704Z,15.95
2023-04-23T21:28:20.543Z,17.02
2023-04-23T21:30:54.483Z,16.05
2023-04-23T21:33:23.566Z,16.73
2023-04-23T21:35:51.430Z,17.25
2023-04-23T21:38:18.506Z,19.13
2023-04-23T21:40:45.839Z,20.65
2023-04-23T21:43:12.792Z,19.92
2023-04-23T21:45:39.827Z,23.50
2023-04-23T21:48:06.657Z,23.33
2023-04-23T21:50:33.867Z,22.65
2023-04-23T21:53:03.110Z,21.88
2023-04-23T21:55:33.611Z,21.52
2023-04-23T21:58:13.958Z,23.02
2023-04-23T22:00:44.767Z,24.73
2023-04-23T22:03:12.626Z,23.13
2023-04-23T22:05:52.480Z,21.73
2023-04-23T22:08:19.551Z,23.20
2023-04-23T22:10:46.717Z,21.48
2023-04-23T22:13:14.344Z,23.02
2023-04-23T22:15:41.412Z,25.83
2023-04-23T22:18:08.708Z,23.42
2023-04-23T22:20:37.618Z,25.08
2023-04-23T22:23:04.500Z,23.77
2023-04-23T22:25:31.513Z,24.23
2023-04-23T22:27:59.009Z,23.15
2023-04-23T22:30:26.246Z,22.95
2023-04-23T22:32:53.084Z,21.95
2023-04-23T22:35:20.292Z,22.65
2023-04-23T22:37:47.705Z,23.83
2023-04-23T22:40:15.814Z,26.90
2023-04-23T22:42:42.955Z,25.17
2023-04-23T22:45:11.299Z,25.17
2023-04-23T22:47:38.761Z,25.52
2023-04-23T22:50:07.849Z,25.88
2023-04-23T22:52:38.038Z,24.58
2023-04-23T22:55:06.382Z,26.17
2023-04-23T22:57:33.308Z,26.80
2023-04-23T23:00:00.777Z,28.35
2023-04-23T23:02:27.879Z,26.90
2023-04-23T23:04:56.005Z,27.70
2023-04-23T23:07:23.358Z,27.73
2023-04-23T23:09:50.770Z,24.70
2023-04-23T23:12:18.152Z,26.90
2023-04-23T23:14:45.603Z,27.67
2023-04-23T23:17:12.664Z,26.88
2023-04-23T23:19:39.854Z,29.58
2023-04-23T23:22:09.905Z,29.63
2023-04-23T23:24:37.669Z,27.30
2023-04-23T23:27:04.929Z,26.20
2023-04-23T23:29:32.817Z,29.17
2023-04-23T23:31:59.956Z,29.23
2023-04-23T23:34:27.166Z,27.08
2023-04-23T23:36:54.180Z,26.08
2023-04-23T23:39:21.727Z,28.88
2023-04-23T23:41:48.622Z,31.60
2023-04-23T23:44:16.595Z,29.42
2023-04-23T23:46:43.542Z,27.20
2023-04-23T23:49:11.150Z,28.77
2023-04-23T23:51:38.622Z,29.13
2023-04-23T23:54:06.281Z,31.02
2023-04-23T23:56:33.128Z,28.77
2023-04-23T23:59:00.149Z,29.95
